This is the latest recevied weather packets stored in our database for station/object S57ZT-10. If no packets are shown the sender has not sent any weather packets the latest 10 day(s).
| Time | Temp. | Humidity | Pressure | Rain* | Wind** | Luminosity | Snow |
|---|---|---|---|---|---|---|---|
| 1777214678 | 27.22° C | 24% | 1020.2 hPa | - | - | - | - |
| 1777212875 | 28.33° C | 24% | 1020 hPa | - | - | - | - |
| 1777206588 | 31.11° C | 20% | 1019.8 hPa | - | - | - | - |
| 1777205749 | 31.11° C | 21% | 1019.8 hPa | - | - | - | - |
| 1777202960 | 30.56° C | 20% | 1019.7 hPa | - | - | - | - |
| 1777201160 | 31.11° C | 19% | 1019.8 hPa | - | - | - | - |
| 1777195761 | 28.89° C | 22% | 1020.1 hPa | - | - | - | - |
| 1777194904 | 28.89° C | 22% | 1019.9 hPa | - | - | - | - |
| 1777194850 | 28.89° C | 22% | 1019.9 hPa | - | - | - | - |
| 1777193996 | 27.78° C | 23% | 1019.8 hPa | - | - | - | - |
| 1777193088 | 27.22° C | 25% | 1019.9 hPa | - | - | - | - |
| 1777192149 | 26.67° C | 23% | 1019.9 hPa | - | - | - | - |
| 1777191302 | 26.11° C | 24% | 1019.9 hPa | - | - | - | - |
| 1777191250 | 26.11° C | 24% | 1019.9 hPa | - | - | - | - |
| 1777190401 | 25° C | 25% | 1019.8 hPa | - | - | - | - |
| 1777190361 | 25° C | 25% | 1019.8 hPa | - | - | - | - |
| 1777189448 | 23.89° C | 27% | 1019.7 hPa | - | - | - | - |
| 1777187715 | 22.22° C | 31% | 1019.7 hPa | - | - | - | - |
| 1777187680 | 22.22° C | 31% | 1019.7 hPa | - | - | - | - |
| 1777185103 | 18.89° C | 40% | 1019.8 hPa | - | - | - | - |
| 1777185060 | 18.89° C | 40% | 1019.8 hPa | - | - | - | - |
| 1777184050 | 17.78° C | 42% | 1019.7 hPa | - | - | - | - |
| 1777183196 | 16.67° C | 45% | 1019.5 hPa | - | - | - | - |
| 1777183150 | 16.67° C | 45% | 1019.5 hPa | - | - | - | - |
| 1777182247 | 16.11° C | 44% | 1019.4 hPa | - | - | - | - |
* Rain since midnight (hover to see other rain measurements)
** Current wind speed in m/s (hover to see current wind gust speed)